createdAt,value
2019-05-01T00:00:33.351Z,0.00
2019-05-01T00:01:32.749Z,0.00
2019-05-01T00:02:32.740Z,0.00
2019-05-01T00:03:32.787Z,0.00
2019-05-01T00:04:32.829Z,0.00
2019-05-01T00:05:32.717Z,0.00
2019-05-01T00:06:32.719Z,0.00
2019-05-01T00:07:32.763Z,0.00
2019-05-01T00:08:33.353Z,0.00
2019-05-01T00:09:32.724Z,0.00
2019-05-01T00:10:32.701Z,0.00
2019-05-01T00:11:32.662Z,0.00
2019-05-01T00:12:32.644Z,0.00
2019-05-01T00:13:32.724Z,0.00
2019-05-01T00:14:32.659Z,0.00
2019-05-01T00:15:32.618Z,0.00
2019-05-01T00:16:32.632Z,0.00
2019-05-01T00:17:32.626Z,0.00
2019-05-01T00:18:32.589Z,0.00
2019-05-01T00:19:32.596Z,0.00
2019-05-01T00:20:32.583Z,0.00
2019-05-01T00:21:32.607Z,0.00
2019-05-01T00:22:32.563Z,0.00
2019-05-01T00:23:32.545Z,0.00
2019-05-01T00:24:32.531Z,0.00
2019-05-01T00:25:32.552Z,0.00
2019-05-01T00:26:32.504Z,0.00
2019-05-01T00:27:32.481Z,0.00
2019-05-01T00:28:32.478Z,0.00
2019-05-01T00:29:32.487Z,0.00
2019-05-01T00:30:32.496Z,0.00
2019-05-01T00:31:32.448Z,0.00
2019-05-01T00:32:32.441Z,0.00
2019-05-01T00:33:32.440Z,0.00
2019-05-01T00:34:32.408Z,0.00
2019-05-01T00:35:32.414Z,0.00
2019-05-01T00:36:32.464Z,0.00
2019-05-01T00:37:32.412Z,0.00
2019-05-01T00:38:33.386Z,0.00
2019-05-01T00:39:32.869Z,0.00
2019-05-01T00:40:32.501Z,0.00
2019-05-01T00:41:32.383Z,0.00
2019-05-01T00:42:32.364Z,0.00
2019-05-01T00:43:32.395Z,0.00
2019-05-01T00:44:32.468Z,0.00
2019-05-01T00:45:32.378Z,0.00
2019-05-01T00:46:32.865Z,0.00
2019-05-01T00:47:32.273Z,0.00
2019-05-01T00:48:32.373Z,0.00
2019-05-01T00:49:32.335Z,0.00
2019-05-01T00:50:32.320Z,0.00
2019-05-01T00:51:32.215Z,0.00
2019-05-01T00:52:32.225Z,0.00
2019-05-01T00:53:32.216Z,0.00
2019-05-01T00:54:32.212Z,0.00
2019-05-01T00:55:32.210Z,0.00
2019-05-01T00:56:32.184Z,0.00
2019-05-01T00:57:32.196Z,0.00
2019-05-01T00:58:32.203Z,0.00
2019-05-01T00:59:32.153Z,0.00
2019-05-01T01:00:42.600Z,0.00
2019-05-01T01:01:33.126Z,0.00
2019-05-01T01:02:32.128Z,0.00
2019-05-01T01:03:32.216Z,0.00
2019-05-01T01:04:32.093Z,0.00
2019-05-01T01:05:32.090Z,0.00
2019-05-01T01:06:32.864Z,0.00
2019-05-01T01:07:32.063Z,0.00
2019-05-01T01:08:32.866Z,0.00
2019-05-01T01:09:32.104Z,0.00
2019-05-01T01:10:32.034Z,0.00
2019-05-01T01:11:32.081Z,0.00
2019-05-01T01:12:32.081Z,0.00
2019-05-01T01:13:31.991Z,0.00
2019-05-01T01:14:31.968Z,0.00
2019-05-01T01:15:32.057Z,0.00
2019-05-01T01:16:32.082Z,0.00
2019-05-01T01:17:31.946Z,0.00
2019-05-01T01:18:32.158Z,0.00
2019-05-01T01:19:31.957Z,0.00
2019-05-01T01:20:31.933Z,0.00
2019-05-01T01:21:31.963Z,0.00
2019-05-01T01:22:31.952Z,0.00
2019-05-01T01:23:31.905Z,0.00
2019-05-01T01:24:31.924Z,0.00
2019-05-01T01:25:31.874Z,0.00
2019-05-01T01:26:31.882Z,0.00
2019-05-01T01:27:31.894Z,0.00
2019-05-01T01:28:31.842Z,0.00
2019-05-01T01:29:31.899Z,0.00
2019-05-01T01:30:31.815Z,0.00
2019-05-01T01:31:31.865Z,0.00
2019-05-01T01:32:31.840Z,0.00
2019-05-01T01:33:31.831Z,0.00
2019-05-01T01:34:31.802Z,0.00
2019-05-01T01:35:31.755Z,0.00
2019-05-01T01:36:31.748Z,0.00
2019-05-01T01:37:31.767Z,0.00
2019-05-01T01:38:31.798Z,0.00
2019-05-01T01:39:31.769Z,0.00
2019-05-01T01:40:31.712Z,0.00
2019-05-01T01:41:32.373Z,0.00
2019-05-01T01:42:31.752Z,0.00
2019-05-01T01:43:31.720Z,0.00
2019-05-01T01:44:31.771Z,0.00
2019-05-01T01:45:31.714Z,0.00
2019-05-01T01:46:31.698Z,0.00
2019-05-01T01:47:31.646Z,0.00
2019-05-01T01:48:31.619Z,0.00
2019-05-01T01:49:31.652Z,0.00
2019-05-01T01:50:31.632Z,0.00
2019-05-01T01:51:31.598Z,0.00
2019-05-01T01:52:31.669Z,0.00
2019-05-01T01:53:31.610Z,0.00
2019-05-01T01:54:31.597Z,0.00
2019-05-01T01:55:31.671Z,0.00
2019-05-01T01:56:31.617Z,0.00
2019-05-01T01:57:31.533Z,0.00
2019-05-01T01:58:31.594Z,0.00
2019-05-01T01:59:31.505Z,0.00
2019-05-01T02:00:31.555Z,0.00
2019-05-01T02:01:31.566Z,0.00
2019-05-01T02:02:31.531Z,0.00
2019-05-01T02:03:31.484Z,0.00
2019-05-01T02:04:31.553Z,0.00
2019-05-01T02:05:31.446Z,0.00
2019-05-01T02:06:31.458Z,0.00
2019-05-01T02:07:31.448Z,0.00
2019-05-01T02:08:31.515Z,0.00
2019-05-01T02:09:31.417Z,0.00
2019-05-01T02:10:42.329Z,0.00
2019-05-01T02:11:32.474Z,0.00
2019-05-01T02:12:31.550Z,0.00
2019-05-01T02:13:31.390Z,0.00
2019-05-01T02:14:31.349Z,0.00
2019-05-01T02:15:31.358Z,0.00
2019-05-01T02:16:31.347Z,0.00
2019-05-01T02:17:31.421Z,0.00
2019-05-01T02:18:31.576Z,0.00
2019-05-01T02:19:31.338Z,0.00
2019-05-01T02:20:31.373Z,0.00
2019-05-01T02:21:31.358Z,0.00
2019-05-01T02:22:31.266Z,0.00
2019-05-01T02:23:31.310Z,0.00
2019-05-01T02:24:31.302Z,0.00
2019-05-01T02:25:31.227Z,0.00
2019-05-01T02:26:31.268Z,0.00
2019-05-01T02:27:31.369Z,0.00
2019-05-01T02:28:31.199Z,0.00
2019-05-01T02:29:31.284Z,0.00
2019-05-01T02:30:31.887Z,0.00
2019-05-01T02:31:31.172Z,0.00
2019-05-01T02:32:31.240Z,0.00
2019-05-01T02:33:31.157Z,0.00
2019-05-01T02:34:31.220Z,0.00
2019-05-01T02:35:31.188Z,0.00
2019-05-01T02:36:31.144Z,0.00
2019-05-01T02:37:31.179Z,0.00
2019-05-01T02:38:31.088Z,0.00
2019-05-01T02:39:31.152Z,0.00
2019-05-01T02:40:31.306Z,0.00
2019-05-01T02:41:31.176Z,0.00
2019-05-01T02:42:31.102Z,0.00
2019-05-01T02:43:31.068Z,0.00
2019-05-01T02:44:31.059Z,0.00
2019-05-01T02:45:31.021Z,0.00
2019-05-01T02:46:31.038Z,0.00
2019-05-01T02:47:31.150Z,0.00
2019-05-01T02:48:31.076Z,0.00
2019-05-01T02:49:31.070Z,0.00
2019-05-01T02:50:30.969Z,0.00
2019-05-01T02:51:31.252Z,0.00
2019-05-01T02:52:30.987Z,0.00
2019-05-01T02:53:30.945Z,0.00
2019-05-01T02:54:30.982Z,0.00
2019-05-01T02:55:31.006Z,0.00
2019-05-01T02:56:31.047Z,0.00
2019-05-01T02:57:30.982Z,0.00
2019-05-01T02:58:30.989Z,0.00
2019-05-01T02:59:30.943Z,0.00
2019-05-01T03:00:30.915Z,0.00
2019-05-01T03:01:45.518Z,0.00
2019-05-01T03:02:31.892Z,0.00
2019-05-01T03:03:30.840Z,0.00
2019-05-01T03:04:30.845Z,0.00
2019-05-01T03:05:30.854Z,0.00
2019-05-01T03:06:30.788Z,0.00
2019-05-01T03:07:30.771Z,0.00
2019-05-01T03:08:30.970Z,0.00
2019-05-01T03:09:30.817Z,0.00
2019-05-01T03:10:31.006Z,0.00
2019-05-01T03:11:30.861Z,0.00
2019-05-01T03:12:30.733Z,0.00
2019-05-01T03:13:31.394Z,0.00
2019-05-01T03:14:30.810Z,0.00
2019-05-01T03:15:31.407Z,0.00
2019-05-01T03:16:30.711Z,0.00
2019-05-01T03:17:30.743Z,0.00
2019-05-01T03:18:30.809Z,0.00
2019-05-01T03:19:30.662Z,0.00
2019-05-01T03:20:30.689Z,0.00
2019-05-01T03:21:30.633Z,0.00
2019-05-01T03:22:30.667Z,0.00
2019-05-01T03:23:30.661Z,0.00
2019-05-01T03:24:30.669Z,0.00
2019-05-01T03:25:30.579Z,0.00
2019-05-01T03:26:30.593Z,0.00
2019-05-01T03:27:30.570Z,0.00
2019-05-01T03:28:30.577Z,0.00
2019-05-01T03:29:30.557Z,0.00
2019-05-01T03:30:30.542Z,0.00
2019-05-01T03:31:30.593Z,0.00
2019-05-01T03:32:30.545Z,0.00
2019-05-01T03:33:30.507Z,0.00
2019-05-01T03:34:30.673Z,0.00
2019-05-01T03:35:30.543Z,0.00
2019-05-01T03:36:30.470Z,0.00
2019-05-01T03:37:30.462Z,0.00
2019-05-01T03:38:30.515Z,0.00
2019-05-01T03:39:30.483Z,0.00
2019-05-01T03:40:30.473Z,0.00
2019-05-01T03:41:30.414Z,0.00
2019-05-01T03:42:30.403Z,0.00
2019-05-01T03:43:30.411Z,0.00
2019-05-01T03:44:30.376Z,5.62
2019-05-01T03:45:33.963Z,5.62
2019-05-01T03:46:30.386Z,5.62
2019-05-01T03:47:30.356Z,5.62
2019-05-01T03:48:30.361Z,5.62
2019-05-01T03:49:30.336Z,5.62
2019-05-01T03:50:30.328Z,5.62
2019-05-01T03:51:30.337Z,5.62
2019-05-01T03:52:30.292Z,5.62
2019-05-01T03:53:30.292Z,5.62
2019-05-01T03:54:30.291Z,5.62
2019-05-01T03:55:30.272Z,5.62
2019-05-01T03:56:30.276Z,5.62
2019-05-01T03:57:30.266Z,5.62
2019-05-01T03:58:30.236Z,5.62
2019-05-01T03:59:30.241Z,5.62
2019-05-01T04:00:30.233Z,5.62
2019-05-01T04:01:30.222Z,5.62
2019-05-01T04:02:33.700Z,5.62
2019-05-01T04:03:30.198Z,5.62
2019-05-01T04:04:30.170Z,5.62
2019-05-01T04:05:30.163Z,11.25
2019-05-01T04:06:30.189Z,11.25
2019-05-01T04:07:30.188Z,16.88
2019-05-01T04:08:30.190Z,16.88
2019-05-01T04:09:30.106Z,22.50
2019-05-01T04:10:30.127Z,22.50
2019-05-01T04:11:30.113Z,22.50
2019-05-01T04:12:30.139Z,22.50
2019-05-01T04:13:30.109Z,22.50
2019-05-01T04:14:30.109Z,28.12
2019-05-01T04:15:30.095Z,28.12
2019-05-01T04:16:30.057Z,28.12
2019-05-01T04:17:30.051Z,28.12
2019-05-01T04:18:30.021Z,33.75
2019-05-01T04:19:30.014Z,33.75
2019-05-01T04:20:30.054Z,33.75
2019-05-01T04:21:29.999Z,33.75
2019-05-01T04:22:29.999Z,33.75
2019-05-01T04:23:29.983Z,33.75
2019-05-01T04:24:29.996Z,33.75
2019-05-01T04:25:30.004Z,33.75
2019-05-01T04:26:29.929Z,39.38
2019-05-01T04:27:29.918Z,39.38
2019-05-01T04:28:29.902Z,45.00
2019-05-01T04:29:29.912Z,45.00
2019-05-01T04:30:29.926Z,50.62
2019-05-01T04:31:29.901Z,50.62
2019-05-01T04:32:29.883Z,56.25
2019-05-01T04:33:31.015Z,61.88
2019-05-01T04:34:29.894Z,61.88
2019-05-01T04:35:29.855Z,61.88
2019-05-01T04:36:29.873Z,61.88
2019-05-01T04:37:32.531Z,61.88
2019-05-01T04:38:29.806Z,61.88
2019-05-01T04:39:29.797Z,61.88
2019-05-01T04:40:29.788Z,61.88
2019-05-01T04:41:29.830Z,67.50
2019-05-01T04:42:29.790Z,67.50
2019-05-01T04:43:29.741Z,73.12
2019-05-01T04:44:29.769Z,73.12
2019-05-01T04:45:29.759Z,73.12
2019-05-01T04:46:31.461Z,78.75
2019-05-01T04:47:29.752Z,78.75
2019-05-01T04:48:29.773Z,84.38
2019-05-01T04:49:29.739Z,84.38
2019-05-01T04:50:29.674Z,84.38
2019-05-01T04:51:29.691Z,84.38
2019-05-01T04:52:29.672Z,84.38
2019-05-01T04:53:29.684Z,84.38
2019-05-01T04:54:29.638Z,84.38
2019-05-01T04:55:29.641Z,90.00
2019-05-01T04:56:29.612Z,95.62
2019-05-01T04:57:29.625Z,112.50
2019-05-01T04:58:30.487Z,123.75
2019-05-01T04:59:29.621Z,135.00
2019-05-01T05:00:29.588Z,140.62
2019-05-01T05:01:29.567Z,135.00
2019-05-01T05:02:29.604Z,151.88
2019-05-01T05:03:29.543Z,151.88
2019-05-01T05:04:29.559Z,151.88
2019-05-01T05:05:29.585Z,146.25
2019-05-01T05:06:30.548Z,140.62
2019-05-01T05:07:29.494Z,157.50
2019-05-01T05:08:29.515Z,157.50
2019-05-01T05:09:29.487Z,157.50
2019-05-01T05:10:29.519Z,157.50
2019-05-01T05:11:39.038Z,135.00
2019-05-01T05:12:29.553Z,140.62
2019-05-01T05:13:31.204Z,140.62
2019-05-01T05:14:29.485Z,140.62
2019-05-01T05:15:29.433Z,163.12
2019-05-01T05:16:29.446Z,163.12
2019-05-01T05:17:29.438Z,140.62
2019-05-01T05:18:29.420Z,140.62
2019-05-01T05:19:29.943Z,140.62
2019-05-01T05:20:29.408Z,140.62
2019-05-01T05:21:29.411Z,146.25
2019-05-01T05:22:29.476Z,146.25
2019-05-01T05:23:29.423Z,151.88
2019-05-01T05:24:29.374Z,163.12
2019-05-01T05:25:29.349Z,180.00
2019-05-01T05:26:29.455Z,196.88
2019-05-01T05:27:29.465Z,202.50
2019-05-01T05:28:31.301Z,213.75
2019-05-01T05:29:29.284Z,230.62
2019-05-01T05:30:29.308Z,247.50
2019-05-01T05:31:29.287Z,270.00
2019-05-01T05:32:29.299Z,270.00
2019-05-01T05:33:30.054Z,270.00
2019-05-01T05:34:29.218Z,275.62
2019-05-01T05:35:30.020Z,292.50
2019-05-01T05:36:29.208Z,309.38
2019-05-01T05:37:29.212Z,320.62
2019-05-01T05:38:29.207Z,315.00
2019-05-01T05:39:29.177Z,309.38
2019-05-01T05:40:29.148Z,343.12
2019-05-01T05:41:29.387Z,337.50
2019-05-01T05:42:29.199Z,348.75
2019-05-01T05:43:29.133Z,331.88
2019-05-01T05:44:29.157Z,337.50
2019-05-01T05:45:29.121Z,286.88
2019-05-01T05:46:29.120Z,258.75
2019-05-01T05:47:29.203Z,253.12
2019-05-01T05:48:29.128Z,253.12
2019-05-01T05:49:29.078Z,253.12
2019-05-01T05:50:29.085Z,247.50
2019-05-01T05:51:29.052Z,241.88
2019-05-01T05:52:29.084Z,225.00
2019-05-01T05:53:29.027Z,219.38
2019-05-01T05:54:29.003Z,225.00
2019-05-01T05:55:29.021Z,225.00
2019-05-01T05:56:29.127Z,230.62
2019-05-01T05:57:30.018Z,225.00
2019-05-01T05:58:29.949Z,225.00
2019-05-01T05:59:29.091Z,230.62
2019-05-01T06:00:29.082Z,236.25
2019-05-01T06:01:28.982Z,230.62
2019-05-01T06:02:28.977Z,253.12
2019-05-01T06:03:31.301Z,264.38
2019-05-01T06:04:28.934Z,270.00
2019-05-01T06:05:28.952Z,264.38
2019-05-01T06:06:28.929Z,247.50
2019-05-01T06:07:28.956Z,225.00
2019-05-01T06:08:29.523Z,213.75
2019-05-01T06:09:29.456Z,219.38
2019-05-01T06:10:30.852Z,230.62
2019-05-01T06:11:33.811Z,230.62
2019-05-01T06:12:29.844Z,230.62
2019-05-01T06:13:28.845Z,241.88
2019-05-01T06:14:31.436Z,253.12
2019-05-01T06:15:28.796Z,270.00
2019-05-01T06:16:28.790Z,264.38
2019-05-01T06:17:29.763Z,258.75
2019-05-01T06:18:28.775Z,292.50
2019-05-01T06:19:28.780Z,258.75
2019-05-01T06:20:28.732Z,241.88
2019-05-01T06:21:28.756Z,247.50
2019-05-01T06:22:28.723Z,247.50
2019-05-01T06:23:28.734Z,253.12
2019-05-01T06:24:28.706Z,264.38
2019-05-01T06:25:28.688Z,286.88
2019-05-01T06:26:32.089Z,309.38
2019-05-01T06:27:29.653Z,343.12
2019-05-01T06:28:29.665Z,382.50
2019-05-01T06:29:30.996Z,393.75
2019-05-01T06:30:29.664Z,399.38
2019-05-01T06:31:28.762Z,427.50
2019-05-01T06:32:33.069Z,433.12
2019-05-01T06:33:28.601Z,405.00
2019-05-01T06:34:29.714Z,371.25
2019-05-01T06:35:28.591Z,360.00
2019-05-01T06:36:28.593Z,343.12
2019-05-01T06:37:28.548Z,337.50
2019-05-01T06:38:31.462Z,371.25
2019-05-01T06:39:29.530Z,360.00
2019-05-01T06:40:28.518Z,286.88
2019-05-01T06:41:32.948Z,241.88
2019-05-01T06:42:28.563Z,225.00
2019-05-01T06:43:28.491Z,208.12
2019-05-01T06:44:28.469Z,202.50
2019-05-01T06:45:28.467Z,202.50
2019-05-01T06:46:29.163Z,202.50
2019-05-01T06:47:28.458Z,208.12
2019-05-01T06:48:28.439Z,202.50
2019-05-01T06:49:29.435Z,196.88
2019-05-01T06:50:31.749Z,196.88
2019-05-01T06:51:28.510Z,191.25
2019-05-01T06:52:29.263Z,180.00
2019-05-01T06:53:28.461Z,174.38
2019-05-01T06:54:28.406Z,174.38
2019-05-01T06:55:28.911Z,196.88
2019-05-01T06:56:28.375Z,208.12
2019-05-01T06:57:28.381Z,213.75
2019-05-01T06:58:28.360Z,247.50
2019-05-01T06:59:31.462Z,309.38
2019-05-01T07:00:28.339Z,343.12
2019-05-01T07:01:28.295Z,365.62
2019-05-01T07:02:29.933Z,388.12
2019-05-01T07:03:29.353Z,393.75
2019-05-01T07:04:32.476Z,405.00
2019-05-01T07:05:29.286Z,416.25
2019-05-01T07:06:31.019Z,433.12
2019-05-01T07:07:28.228Z,455.62
2019-05-01T07:08:29.516Z,455.62
2019-05-01T07:09:29.207Z,461.25
2019-05-01T07:10:31.760Z,483.75
2019-05-01T07:11:29.235Z,506.25
2019-05-01T07:12:29.791Z,528.75
2019-05-01T07:13:28.218Z,534.38
2019-05-01T07:14:28.982Z,573.75
2019-05-01T07:15:28.496Z,630.00
2019-05-01T07:16:28.169Z,658.12
2019-05-01T07:17:29.065Z,635.62
2019-05-01T07:18:29.169Z,630.00
2019-05-01T07:19:28.221Z,568.12
2019-05-01T07:20:28.125Z,511.88
2019-05-01T07:21:32.404Z,500.62
2019-05-01T07:22:28.142Z,495.00
2019-05-01T07:23:28.082Z,450.00
2019-05-01T07:24:29.359Z,427.50
2019-05-01T07:25:28.060Z,427.50
2019-05-01T07:26:28.210Z,427.50
2019-05-01T07:27:28.072Z,427.50
2019-05-01T07:28:28.985Z,421.88
2019-05-01T07:29:29.026Z,421.88
2019-05-01T07:30:28.064Z,450.00
2019-05-01T07:31:30.924Z,466.88
2019-05-01T07:32:28.066Z,495.00
2019-05-01T07:33:28.753Z,545.62
2019-05-01T07:34:27.981Z,562.50
2019-05-01T07:35:28.472Z,624.38
2019-05-01T07:36:27.949Z,613.12
2019-05-01T07:37:27.934Z,675.00
2019-05-01T07:38:27.932Z,545.62
2019-05-01T07:39:27.939Z,534.38
2019-05-01T07:40:30.088Z,528.75
2019-05-01T07:41:27.914Z,478.12
2019-05-01T07:42:27.870Z,421.88
2019-05-01T07:43:27.914Z,416.25
2019-05-01T07:44:37.118Z,455.62
2019-05-01T07:45:39.049Z,455.62
2019-05-01T07:46:28.819Z,489.38
2019-05-01T07:47:30.448Z,534.38
2019-05-01T07:48:27.789Z,624.38
2019-05-01T07:49:27.784Z,669.38
2019-05-01T07:50:31.603Z,708.75
2019-05-01T07:51:27.802Z,663.75
2019-05-01T07:52:27.757Z,618.75
2019-05-01T07:53:30.611Z,607.50
2019-05-01T07:54:27.789Z,630.00
2019-05-01T07:55:27.799Z,630.00
2019-05-01T07:56:28.286Z,720.00
2019-05-01T07:57:28.546Z,585.00
2019-05-01T07:58:27.713Z,540.00
2019-05-01T07:59:28.745Z,568.12
2019-05-01T08:00:27.733Z,641.25
2019-05-01T08:01:27.661Z,613.12
2019-05-01T08:02:30.885Z,534.38
2019-05-01T08:03:28.905Z,455.62
2019-05-01T08:04:35.826Z,421.88
2019-05-01T08:05:28.665Z,382.50
2019-05-01T08:06:27.750Z,388.12
2019-05-01T08:07:31.967Z,360.00
2019-05-01T08:08:27.615Z,331.88
2019-05-01T08:09:28.558Z,320.62
2019-05-01T08:10:31.517Z,320.62
2019-05-01T08:11:28.599Z,331.88
2019-05-01T08:12:27.559Z,331.88
2019-05-01T08:13:30.664Z,309.38
2019-05-01T08:14:28.576Z,331.88
2019-05-01T08:15:32.305Z,405.00
2019-05-01T08:16:28.541Z,444.38
2019-05-01T08:17:27.553Z,388.12
2019-05-01T08:18:27.876Z,399.38
2019-05-01T08:19:27.516Z,545.62
2019-05-01T08:20:27.614Z,680.62
2019-05-01T08:21:28.565Z,753.75
2019-05-01T08:22:31.934Z,556.88
2019-05-01T08:23:28.507Z,573.75
2019-05-01T08:24:27.506Z,630.00
2019-05-01T08:25:28.687Z,596.25
2019-05-01T08:26:28.416Z,675.00
2019-05-01T08:27:27.532Z,748.12
2019-05-01T08:28:31.626Z,736.88
2019-05-01T08:29:27.556Z,607.50
2019-05-01T08:30:27.360Z,759.38
2019-05-01T08:31:31.684Z,731.25
2019-05-01T08:32:28.235Z,697.50
2019-05-01T08:33:30.194Z,703.12
2019-05-01T08:34:33.037Z,596.25
2019-05-01T08:35:27.375Z,551.25
2019-05-01T08:36:32.888Z,534.38
2019-05-01T08:37:27.548Z,613.12
2019-05-01T08:38:29.879Z,635.62
2019-05-01T08:39:31.146Z,635.62
2019-05-01T08:40:27.266Z,573.75
2019-05-01T08:42:27.878Z,601.88
2019-05-01T08:43:27.828Z,641.25
2019-05-01T08:44:29.643Z,601.88
2019-05-01T08:45:27.876Z,506.25
2019-05-01T08:46:27.829Z,523.12
2019-05-01T08:47:29.393Z,455.62
2019-05-01T08:48:30.859Z,466.88
2019-05-01T08:49:28.769Z,483.75
2019-05-01T08:50:27.906Z,489.38
2019-05-01T08:51:30.022Z,545.62
2019-05-01T08:52:28.799Z,630.00
2019-05-01T08:53:27.755Z,686.25
2019-05-01T08:54:29.046Z,680.62
2019-05-01T08:55:28.776Z,596.25
2019-05-01T08:56:27.814Z,669.38
2019-05-01T08:57:29.313Z,748.12
2019-05-01T08:58:31.810Z,855.00
2019-05-01T08:59:27.768Z,804.38
2019-05-01T09:00:30.933Z,826.88
2019-05-01T09:01:29.425Z,810.00
2019-05-01T09:02:27.785Z,669.38
2019-05-01T09:03:27.826Z,663.75
2019-05-01T09:04:30.587Z,646.88
2019-05-01T09:05:30.013Z,652.50
2019-05-01T09:06:34.609Z,635.62
2019-05-01T09:07:28.707Z,635.62
2019-05-01T09:08:32.013Z,652.50
2019-05-01T09:09:28.586Z,624.38
2019-05-01T09:10:27.579Z,613.12
2019-05-01T09:12:52.022Z,635.62
2019-05-01T09:13:44.780Z,585.00
2019-05-01T09:14:44.794Z,613.12
2019-05-01T09:15:48.283Z,630.00
2019-05-01T09:16:44.945Z,635.62
2019-05-01T09:17:44.715Z,652.50
2019-05-01T09:18:44.716Z,658.12
2019-05-01T09:19:44.722Z,691.88
2019-05-01T09:20:44.784Z,860.62
2019-05-01T09:21:44.777Z,759.38
2019-05-01T09:22:44.695Z,691.88
2019-05-01T09:23:46.285Z,843.75
2019-05-01T09:24:46.525Z,759.38
2019-05-01T09:25:45.570Z,759.38
2019-05-01T09:26:45.486Z,916.88
2019-05-01T09:27:45.665Z,821.25
2019-05-01T09:28:44.723Z,810.00
2019-05-01T09:29:46.865Z,697.50
2019-05-01T09:30:45.631Z,658.12
2019-05-01T09:31:45.675Z,646.88
2019-05-01T09:32:45.996Z,646.88
2019-05-01T09:33:45.705Z,652.50
2019-05-01T09:34:44.591Z,613.12
2019-05-01T09:35:46.685Z,585.00
2019-05-01T09:36:44.572Z,568.12
2019-05-01T09:37:46.153Z,596.25
2019-05-01T09:38:44.645Z,686.25
2019-05-01T09:39:47.178Z,646.88
2019-05-01T09:40:44.495Z,720.00
2019-05-01T09:41:47.625Z,663.75
2019-05-01T09:42:44.486Z,759.38
2019-05-01T09:43:45.451Z,821.25
2019-05-01T09:44:45.461Z,815.62
2019-05-01T09:45:44.481Z,804.38
2019-05-01T09:46:44.848Z,714.38
2019-05-01T09:47:44.581Z,652.50
2019-05-01T09:48:44.508Z,613.12
2019-05-01T09:49:44.426Z,658.12
2019-05-01T09:50:44.398Z,658.12
2019-05-01T09:51:47.596Z,748.12
2019-05-01T09:52:44.402Z,613.12
2019-05-01T09:53:44.359Z,652.50
2019-05-01T09:54:46.776Z,652.50
2019-05-01T09:55:44.429Z,534.38
2019-05-01T09:56:44.345Z,573.75
2019-05-01T09:57:44.355Z,663.75
2019-05-01T09:58:44.321Z,731.25
2019-05-01T09:59:44.334Z,765.00
2019-05-01T10:00:48.517Z,658.12
2019-05-01T10:01:45.260Z,675.00
2019-05-01T10:02:44.281Z,658.12
2019-05-01T10:03:44.970Z,562.50
2019-05-01T10:04:44.372Z,635.62
2019-05-01T10:05:44.301Z,641.25
2019-05-01T10:06:47.754Z,658.12
2019-05-01T10:07:45.355Z,601.88
2019-05-01T10:08:44.288Z,624.38
2019-05-01T10:09:47.196Z,624.38
2019-05-01T10:10:45.236Z,601.88
2019-05-01T10:11:44.584Z,590.62
2019-05-01T10:12:47.041Z,506.25
2019-05-01T10:13:44.157Z,562.50
2019-05-01T10:14:44.170Z,545.62
2019-05-01T10:15:46.171Z,438.75
2019-05-01T10:16:44.630Z,528.75
2019-05-01T10:17:44.280Z,545.62
2019-05-01T10:18:44.202Z,579.38
2019-05-01T10:19:44.227Z,568.12
2019-05-01T10:20:45.003Z,528.75
2019-05-01T10:21:44.291Z,511.88
2019-05-01T10:22:46.904Z,630.00
2019-05-01T10:23:47.012Z,658.12
2019-05-01T10:24:45.078Z,680.62
2019-05-01T10:25:48.092Z,680.62
2019-05-01T10:26:45.157Z,736.88
2019-05-01T10:27:46.041Z,770.62
2019-05-01T10:28:45.222Z,731.25
2019-05-01T10:29:45.296Z,708.75
2019-05-01T10:30:44.905Z,787.50
2019-05-01T10:31:46.610Z,759.38
2019-05-01T10:32:43.920Z,736.88
2019-05-01T10:33:43.993Z,731.25
2019-05-01T10:34:44.619Z,680.62
2019-05-01T10:35:43.935Z,596.25
2019-05-01T10:36:43.916Z,641.25
2019-05-01T10:37:43.879Z,787.50
2019-05-01T10:38:45.065Z,860.62
2019-05-01T10:39:44.951Z,815.62
2019-05-01T10:40:43.962Z,753.75
2019-05-01T10:41:46.431Z,714.38
2019-05-01T10:42:43.844Z,731.25
2019-05-01T10:43:43.825Z,720.00
2019-05-01T10:44:43.880Z,714.38
2019-05-01T10:45:44.511Z,697.50
2019-05-01T10:46:43.770Z,658.12
2019-05-01T10:47:44.134Z,652.50
2019-05-01T10:48:43.819Z,658.12
2019-05-01T10:49:43.765Z,725.62
2019-05-01T10:50:43.883Z,753.75
2019-05-01T10:51:43.719Z,804.38
2019-05-01T10:52:43.849Z,776.25
2019-05-01T10:53:43.749Z,708.75
2019-05-01T10:54:46.429Z,703.12
2019-05-01T10:55:44.580Z,725.62
2019-05-01T10:56:44.035Z,787.50
2019-05-01T10:57:43.788Z,815.62
2019-05-01T10:58:43.637Z,765.00
2019-05-01T10:59:44.859Z,691.88
2019-05-01T11:00:43.722Z,720.00
2019-05-01T11:01:43.634Z,815.62
2019-05-01T11:02:43.706Z,866.25
2019-05-01T11:03:43.675Z,905.62
2019-05-01T11:04:43.654Z,973.12
2019-05-01T11:05:55.224Z,888.75
2019-05-01T11:06:45.222Z,883.12
2019-05-01T11:07:43.566Z,956.25
2019-05-01T11:08:43.778Z,877.50
2019-05-01T11:09:43.648Z,798.75
2019-05-01T11:10:43.526Z,720.00
2019-05-01T11:11:43.548Z,720.00
2019-05-01T11:12:43.517Z,680.62
2019-05-01T11:13:43.582Z,663.75
2019-05-01T11:14:43.493Z,708.75
2019-05-01T11:15:43.473Z,708.75
2019-05-01T11:16:43.479Z,697.50
2019-05-01T11:17:43.453Z,753.75
2019-05-01T11:18:43.488Z,725.62
2019-05-01T11:19:43.426Z,815.62
2019-05-01T11:20:43.469Z,725.62
2019-05-01T11:21:43.395Z,725.62
2019-05-01T11:22:43.372Z,753.75
2019-05-01T11:23:43.406Z,753.75
2019-05-01T11:24:43.384Z,838.12
2019-05-01T11:25:44.756Z,748.12
2019-05-01T11:26:43.989Z,793.12
2019-05-01T11:27:43.343Z,731.25
2019-05-01T11:28:43.426Z,703.12
2019-05-01T11:29:43.342Z,725.62
2019-05-01T11:30:43.336Z,748.12
2019-05-01T11:31:43.332Z,753.75
2019-05-01T11:32:43.341Z,787.50
2019-05-01T11:33:43.456Z,759.38
2019-05-01T11:34:43.262Z,725.62
2019-05-01T11:35:43.294Z,759.38
2019-05-01T11:36:43.242Z,793.12
2019-05-01T11:37:43.379Z,731.25
2019-05-01T11:38:43.233Z,686.25
2019-05-01T11:39:43.390Z,686.25
2019-05-01T11:40:43.202Z,675.00
2019-05-01T11:41:43.187Z,669.38
2019-05-01T11:42:43.206Z,680.62
2019-05-01T11:43:43.175Z,720.00
2019-05-01T11:44:43.162Z,826.88
2019-05-01T11:45:43.163Z,815.62
2019-05-01T11:46:43.152Z,787.50
2019-05-01T11:47:43.172Z,736.88
2019-05-01T11:48:44.684Z,826.88
2019-05-01T11:49:43.129Z,916.88
2019-05-01T11:50:43.138Z,945.00
2019-05-01T11:51:43.110Z,1012.50
2019-05-01T11:52:43.124Z,973.12
2019-05-01T11:53:43.059Z,838.12
2019-05-01T11:54:43.926Z,1023.75
2019-05-01T11:55:43.092Z,871.88
2019-05-01T11:56:43.085Z,1091.25
2019-05-01T11:57:43.033Z,1215.00
2019-05-01T11:58:43.484Z,1248.75
2019-05-01T11:59:43.101Z,1091.25
2019-05-01T12:00:43.928Z,1147.50
2019-05-01T12:01:43.043Z,1209.38
2019-05-01T12:02:42.972Z,1338.75
2019-05-01T12:03:42.971Z,1096.88
2019-05-01T12:04:42.967Z,1170.00
2019-05-01T12:05:42.966Z,1490.62
2019-05-01T12:06:42.937Z,2407.50
2019-05-01T12:07:42.921Z,2261.25
2019-05-01T12:08:42.896Z,1344.38
2019-05-01T12:09:42.884Z,922.50
2019-05-01T12:10:42.882Z,905.62
2019-05-01T12:11:42.915Z,2716.88
2019-05-01T12:12:42.864Z,3757.50
2019-05-01T12:13:44.127Z,2643.75
2019-05-01T12:14:42.857Z,2351.25
2019-05-01T12:15:42.856Z,3037.50
2019-05-01T12:16:42.804Z,2784.38
2019-05-01T12:17:42.824Z,540.00
2019-05-01T12:18:42.895Z,1130.62
2019-05-01T12:19:42.838Z,1068.75
2019-05-01T12:20:42.768Z,1614.38
2019-05-01T12:21:42.769Z,3228.75
2019-05-01T12:22:42.806Z,4117.50
2019-05-01T12:23:43.002Z,2553.75
2019-05-01T12:24:42.780Z,2666.25
2019-05-01T12:25:42.722Z,2694.38
2019-05-01T12:26:43.437Z,3138.75
2019-05-01T12:27:42.748Z,4359.38
2019-05-01T12:28:42.734Z,2418.75
2019-05-01T12:29:42.677Z,3043.12
2019-05-01T12:30:42.817Z,3358.12
2019-05-01T12:31:42.642Z,3436.88
2019-05-01T12:32:42.678Z,1575.00
2019-05-01T12:33:42.648Z,1693.12
2019-05-01T12:34:42.718Z,3318.75
2019-05-01T12:35:42.751Z,3858.75
2019-05-01T12:36:43.470Z,4331.25
2019-05-01T12:37:42.644Z,4505.62
2019-05-01T12:38:42.783Z,3751.88
2019-05-01T12:39:42.693Z,2598.75
2019-05-01T12:40:42.582Z,4567.50
2019-05-01T12:41:42.539Z,2115.00
2019-05-01T12:42:42.593Z,2008.12
2019-05-01T12:43:42.552Z,1603.12
2019-05-01T12:44:42.528Z,2182.50
2019-05-01T12:45:42.517Z,2081.25